Data for 02/06/2006

Time Sea-Level Adjusted Pressure Absolute Pressure Temperature Relative Humidity Dew Point   
(mb) (inHg) (mb) (inHg) (C) (F) (%) (C) (F)
00:05 1025 30.27 854 25.22 -4.8 23.3 68 -9.9 14.2
00:10 1025 30.27 854 25.22 -5 23.1 69 -9.9 14.3
00:15 1025 30.27 854 25.22 -5.2 22.6 71 -9.7 14.6
00:20 1025 30.27 854 25.22 -5.2 22.6 70 -9.9 14.1
00:25 1025 30.27 854 25.22 -5.3 22.4 70 -9.9 14.1
00:30 1025 30.27 854 25.22 -5.5 22.1 71 -9.9 14.2
00:35 1025 30.27 854 25.22 -5.1 22.9 69 -10 14.1
00:40 1025 30.27 854 25.22 -5.6 21.8 71 -10.1 13.8
00:45 1025 30.27 854 25.22 -5.8 21.5 72 -10.2 13.7
00:50 1025 30.27 854 25.22 -5.9 21.5 72 -10.1 13.7
00:55 1025 30.27 854 25.22 -5.8 21.5 72 -10.1 13.8
01:00 1025 30.27 854 25.22 -5.8 21.5 72 -10.2 13.7
01:05 1025 30.27 854 25.22 -6 21.2 72 -10.2 13.6
01:10 1025 30.27 854 25.22 -6.1 20.9 72 -10.4 13.3
01:15 1025 30.27 854 25.22 -6.1 21 72 -10.4 13.3
01:20 1025 30.27 854 25.22 -6.2 20.9 72 -10.5 13.2
01:25 1025 30.27 854 25.22 -6.2 20.9 72 -10.5 13
01:30 1025 30.27 854 25.22 -6.3 20.7 72 -10.5 13.1
01:35 1025 30.27 854 25.22 -6.4 20.5 72 -10.6 12.9
01:40 1025 30.27 854 25.22 -6.5 20.3 74 -10.5 13.1
01:45 1025 30.27 854 25.22 -6.5 20.3 73 -10.5 13.1
01:50 1025 30.27 854 25.22 -6.3 20.6 73 -10.5 13.1
01:55 1025 30.27 854 25.22 -6.4 20.5 73 -10.5 13.1
02:00 1025 30.27 854 25.22 -6.4 20.5 72 -10.7 12.8
02:05 1025 30.27 854 25.22 -6.3 20.7 71 -10.8 12.6
02:10 1025 30.27 854 25.22 -6.6 20.2 75 -10.3 13.4
02:15 1025 30.27 855 25.25 -6.7 19.9 73 -10.8 12.6
02:20 1025 30.27 855 25.25 -6.4 20.6 71 -10.8 12.5
02:25 1025 30.27 855 25.25 -5.9 21.4 69 -10.8 12.6
02:30 1025 30.27 855 25.25 -6.2 20.8 70 -10.9 12.5
02:35 1025 30.27 855 25.25 -6.6 20.2 71 -11 12.1
02:40 1025 30.27 855 25.25 -6.4 20.5 71 -10.8 12.5
02:45 1025 30.27 855 25.25 -6.7 19.9 73 -10.8 12.5
02:50 1025 30.27 855 25.25 -6.6 20 72 -10.8 12.5
02:55 1025 30.27 855 25.25 -6.7 20 73 -10.7 12.8
03:00 1025 30.27 855 25.25 -6.6 20.2 72 -10.9 12.5
03:05 1025 30.27 855 25.25 -6.6 20.2 72 -10.9 12.5
03:10 1025 30.27 855 25.25 -6.8 19.7 72 -11 12.1
03:15 1025 30.27 854 25.22 -6.7 19.9 73 -10.8 12.5
03:20 1025 30.27 854 25.22 -6.8 19.8 72 -11 12.2
03:25 1025 30.27 854 25.22 -6.7 19.9 73 -10.7 12.7
03:30 1025 30.27 854 25.22 -6.7 19.9 73 -10.8 12.5
03:35 1025 30.27 854 25.22 -6.7 19.9 72 -11 12.2
03:40 1025 30.27 854 25.22 -6.4 20.4 71 -10.8 12.5
03:45 1025 30.27 854 25.22 -6.8 19.8 73 -10.8 12.6
03:50 1025 30.27 854 25.22 -7 19.4 73 -11.1 12
03:55 1025 30.27 854 25.22 -7.1 19.3 74 -11 12.2
04:00 1025 30.27 854 25.22 -7.2 19 73 -11.3 11.6
04:05 1025 30.27 854 25.22 -7.3 19 73 -11.2 11.8
04:10 1025 30.27 854 25.22 -7.4 18.6 74 -11.3 11.7
04:15 1025 30.27 854 25.22 -7.2 19 74 -11.2 11.9
04:20 1025 30.27 854 25.22 -7 19.4 73 -11.1 12
04:25 1025 30.27 854 25.22 -7.2 19.1 72 -11.4 11.5
04:30 1025 30.27 854 25.22 -7.6 18.3 74 -11.5 11.2
04:35 1025 30.27 854 25.22 -7.7 18.1 74 -11.6 11.1
04:40 1025 30.27 854 25.22 -7.9 17.8 74 -11.7 10.9
04:45 1025 30.27 854 25.22 -7.7 18.1 75 -11.5 11.3
04:50 1025 30.27 854 25.22 -7.6 18.4 74 -11.4 11.5
04:55 1025 30.27 854 25.22 -7.4 18.7 73 -11.5 11.3
05:00 1025 30.27 854 25.22 -7.5 18.5 72 -11.7 11
05:05 1025 30.27 854 25.22 -7.5 18.5 73 -11.6 11.2
05:10 1025 30.27 854 25.22 -7.6 18.3 75 -11.4 11.5
05:15 1025 30.27 854 25.22 -7.7 18.1 74 -11.6 11.1
05:20 1025 30.27 854 25.22 -7.9 17.7 75 -11.6 11.1
05:25 1025 30.27 854 25.22 -8.1 17.4 73 -12.1 10.2
05:30 1025 30.27 854 25.22 -8.2 17.3 75 -11.8 10.7
05:35 1025 30.27 854 25.22 -8.2 17.3 74 -12 10.4
05:40 1025 30.27 854 25.22 -8.3 17.1 74 -12.1 10.2
05:45 1025 30.27 854 25.22 -8.4 16.9 74 -12.2 10
05:50 1025 30.27 854 25.22 -8.4 16.9 75 -12.2 10.1
05:55 1025 30.27 854 25.22 -8.3 17.1 74 -12.2 10.1
06:00 1025 30.27 854 25.22 -8.3 17.1 74 -12.1 10.3
06:05 1025 30.27 854 25.22 -8.3 17 74 -12.1 10.2
06:10 1025 30.27 854 25.22 -8.4 16.9 75 -12.1 10.3
06:15 1025 30.27 854 25.22 -8.7 16.4 75 -12.3 9.8
06:20 1025 30.27 854 25.22 -8.5 16.6 75 -12.3 9.9
06:25 1025 30.27 854 25.22 -8.6 16.5 75 -12.4 9.8
06:30 1025 30.27 854 25.22 -8.7 16.4 75 -12.4 9.7
06:35 1025 30.27 854 25.22 -8.8 16.2 76 -12.3 9.8
06:40 1025 30.27 854 25.22 -8.9 15.9 76 -12.4 9.6
06:45 1025 30.27 854 25.22 -9.3 15.3 78 -12.5 9.5
06:50 1025 30.27 854 25.22 -9.3 15.2 76 -12.7 9.1
06:55 1025 30.27 854 25.22 -9.4 15.2 77 -12.7 9.2
07:00 1025 30.27 854 25.22 -9.4 15 77 -12.8 9
07:05 1025 30.27 854 25.22 -9.5 15 77 -12.8 9
07:10 1025 30.27 854 25.22 -9.4 15.1 77 -12.7 9.2
07:15 1025 30.27 854 25.22 -9.3 15.3 78 -12.4 9.7
07:20 1025 30.27 854 25.22 -9.1 15.7 77 -12.4 9.7
07:25 1025 30.27 854 25.22 -8.9 15.9 76 -12.3 9.8
07:30 1025 30.27 854 25.22 -8.8 16.1 77 -12.2 10.1
07:35 1025 30.27 854 25.22 -8.7 16.3 76 -12.3 9.9
07:40 1025 30.27 854 25.22 -8.7 16.4 76 -12.1 10.1
07:45 1025 30.27 855 25.25 -8.7 16.3 76 -12.3 9.9
07:50 1025 30.27 855 25.25 -8.8 16.2 76 -12.2 10
07:55 1025 30.27 855 25.25 -8.7 16.3 77 -12 10.4
08:00 1025 30.27 855 25.25 -8.7 16.3 76 -12.2 10
08:05 1025 30.27 855 25.25 -8.7 16.4 76 -12.2 10
08:10 1025 30.27 855 25.25 -8.7 16.3 76 -12.2 10
08:15 1025 30.27 855 25.25 -8.6 16.5 74 -12.4 9.7
08:20 1025 30.27 855 25.25 -8.3 17.2 73 -12.3 9.8
08:25 1025 30.27 855 25.25 -8 17.5 72 -12.2 10
08:30 1025 30.27 855 25.25 -8 17.6 72 -12.1 10.1
08:35 1025 30.27 855 25.25 -8 17.6 72 -12.2 10.1
08:40 1026 30.3 855 25.25 -8 17.6 72 -12.1 10.2
08:45 1026 30.3 855 25.25 -8.1 17.5 73 -12.2 10.1
08:50 1026 30.3 855 25.25 -8 17.6 71 -12.3 9.9
08:55 1026 30.3 855 25.25 -8 17.7 72 -12.2 10
09:00 1026 30.3 855 25.25 -7.7 18.2 71 -12.1 10.3
09:05 1026 30.3 855 25.25 -7.2 19 69 -12 10.5
09:10 1026 30.3 855 25.25 -6.9 19.7 68 -11.8 10.8
09:15 1025 30.27 855 25.25 -6.6 20.2 68 -11.6 11.1
09:20 1025 30.27 855 25.25 -6.3 20.6 66 -11.6 11.1
09:25 1025 30.27 854 25.22 -6.1 21 65 -11.7 11
09:30 1025 30.27 854 25.22 -5.7 21.7 64 -11.5 11.2
09:35 1025 30.27 854 25.22 -5.4 22.2 63 -11.3 11.6
09:40 1025 30.27 854 25.22 -5.2 22.6 62 -11.4 11.6
09:45 1025 30.27 855 25.25 -4.8 23.4 61 -11.1 12
09:50 1025 30.27 855 25.25 -4.2 24.5 59 -11.1 12
09:55 1025 30.27 855 25.25 -3.8 25.1 58 -11 12.2
10:00 1025 30.27 855 25.25 -4 24.8 58 -11.2 11.9
10:05 1025 30.27 855 25.25 -3.8 25.2 58 -11 12.2
10:10 1025 30.27 855 25.25 -2.9 26.7 55 -10.8 12.5
10:15 1026 30.3 855 25.25 -3.1 26.4 54 -11 12.1
10:20 1026 30.3 855 25.25 -3.2 26.2 57 -10.5 13.1
10:25 1026 30.3 855 25.25 -2.5 27.6 53 -10.8 12.6
10:30 1026 30.3 855 25.25 -2.1 28.3 52 -10.6 12.9
10:35 1026 30.3 855 25.25 -2.5 27.5 54 -10.6 12.9
10:40 1026 30.3 855 25.25 -2.8 26.9 56 -10.4 13.2
10:45 1026 30.3 855 25.25 -2.8 27 56 -10.3 13.4
10:50 1026 30.3 855 25.25 -2.5 27.5 55 -10.3 13.4
10:55 1026 30.3 855 25.25 -2.5 27.5 55 -10.4 13.3
11:00 1026 30.3 855 25.25 -2.3 27.8 56 -9.9 14.1
11:05 1026 30.3 855 25.25 -2.4 27.7 55 -10.2 13.6
11:10 1026 30.3 855 25.25 -2.2 28.1 56 -9.8 14.4
11:15 1026 30.3 855 25.25 -2.1 28.3 56 -9.8 14.4
11:20 1025 30.27 855 25.25 -2.8 27 57 -10 13.9
11:25 1025 30.27 855 25.25 -3 26.6 58 -10.1 13.9
11:30 1025 30.27 855 25.25 -3 26.7 57 -10.2 13.6
11:35 1025 30.27 855 25.25 -3.1 26.4 60 -9.8 14.4
11:40 1025 30.27 854 25.22 -2.4 27.6 56 -10.1 13.8
11:45 1025 30.27 854 25.22 -2.3 27.8 56 -9.9 14.2
11:50 1025 30.27 854 25.22 -2.1 28.2 58 -9.3 15.2
11:55 1025 30.27 854 25.22 -2.3 27.9 57 -9.7 14.5
12:00 1025 30.27 854 25.22 -2.5 27.5 55 -10.3 13.5
12:05 1025 30.27 854 25.22 -2.7 27.2 57 -9.9 14.1
12:10 1024 30.24 853 25.19 -2.8 26.9 58 -10 14
12:15 1024 30.24 853 25.19 -3.3 26.1 59 -10.2 13.6
12:20 1024 30.24 853 25.19 -3.6 25.5 60 -10.2 13.6
12:25 1024 30.24 853 25.19 -3.3 26 59 -10.2 13.7
12:30 1024 30.24 853 25.19 -2.6 27.3 57 -10 13.9
12:35 1024 30.24 853 25.19 -2.1 28.2 54 -10.2 13.6
12:40 1024 30.24 853 25.19 -2 28.4 56 -9.8 14.4
12:45 1024 30.24 853 25.19 -2.1 28.2 57 -9.6 14.8
12:50 1024 30.24 853 25.19 -1.9 28.6 56 -9.6 14.7
12:55 1024 30.24 853 25.19 -1.3 29.6 54 -9.5 14.9
13:00 1024 30.24 853 25.19 -1.1 30.1 54 -9.3 15.3
13:05 1024 30.24 854 25.22 -1.1 29.9 56 -8.8 16.2
13:10 1024 30.24 854 25.22 -1.5 29.3 58 -8.8 16.2
13:15 1025 30.27 854 25.22 -1.6 29.1 58 -8.8 16.2
13:20 1025 30.27 854 25.22 -1.6 29.1 59 -8.6 16.5
13:25 1024 30.24 854 25.22 -1.4 29.5 59 -8.5 16.7
13:30 1024 30.24 853 25.19 -1.3 29.7 58 -8.5 16.6
13:35 1024 30.24 853 25.19 -1.3 29.7 56 -9 15.7
13:40 1024 30.24 853 25.19 -1.9 28.7 59 -8.9 16
13:45 1024 30.24 853 25.19 -2.2 28 60 -9.1 15.7
13:50 1024 30.24 853 25.19 -2.3 27.9 61 -8.7 16.3
13:55 1024 30.24 853 25.19 -2 28.4 58 -9.3 15.2
14:00 1024 30.24 853 25.19 -2.3 27.8 61 -8.8 16.2
14:05 1024 30.24 853 25.19 -2.3 27.9 60 -9 15.8
14:10 1024 30.24 853 25.19 -2.1 28.2 58 -9.2 15.4
14:15 1024 30.24 853 25.19 -2.1 28.2 60 -8.8 16.1
14:20 1024 30.24 853 25.19 -2.2 28.1 61 -8.8 16.2
14:25 1023 30.21 853 25.19 -1.8 28.8 59 -8.9 16.1
14:30 1023 30.21 852 25.16 -2 28.4 60 -8.7 16.4
14:35 1023 30.21 852 25.16 -2.1 28.2 60 -8.8 16.2
14:40 1023 30.21 852 25.16 -2.4 27.7 62 -8.7 16.3
14:45 1022 30.18 852 25.16 -2.3 27.9 60 -8.9 15.9
14:50 1022 30.18 851 25.13 -2.3 27.9 59 -9.3 15.3
14:55 1022 30.18 851 25.13 -2.3 27.8 58 -9.6 14.7
15:00 1022 30.18 851 25.13 -2.2 28 58 -9.4 15.2
15:05 1022 30.18 851 25.13 -2 28.5 55 -9.8 14.3
15:10 1022 30.18 851 25.13 -1.8 28.8 55 -9.7 14.5
15:15 1022 30.18 851 25.13 -2 28.3 55 -9.9 14.2
15:20 1022 30.18 851 25.13 -1.9 28.7 54 -9.9 14.2
15:25 1022 30.18 851 25.13 -1.5 29.3 55 -9.4 15
15:30 1022 30.18 851 25.13 -0.9 30.4 52 -9.5 14.9
15:35 1022 30.18 851 25.13 -0 31.9 48 -9.8 14.3
15:40 1022 30.18 851 25.13 0.8 33.5 45 -9.9 14.1
15:45 1022 30.18 851 25.13 1.4 34.5 45 -9.2 15.4
15:50 1022 30.18 851 25.13 1.8 35.3 43 -9.3 15.2
15:55 1022 30.18 851 25.13 1.7 35.1 46 -8.8 16.1
16:00 1022 30.18 851 25.13 1 33.8 46 -9.5 14.9
16:05 1022 30.18 852 25.16 0.4 32.7 50 -9 15.9
16:10 1022 30.18 852 25.16 0 32.1 50 -9.1 15.7
16:15 1022 30.18 852 25.16 0.2 32.3 49 -9.2 15.5
16:20 1022 30.18 852 25.16 0.1 32.1 52 -8.8 16.2
16:25 1023 30.21 852 25.16 -0.2 31.6 58 -7.5 18.5
16:30 1023 30.21 852 25.16 -0.4 31.3 57 -7.9 17.8
16:35 1023 30.21 852 25.16 -0.6 30.9 56 -8.2 17.2
16:40 1023 30.21 852 25.16 -1.1 30.1 58 -8.4 16.9
16:45 1023 30.21 852 25.16 -1.3 29.6 54 -9.5 14.9
16:50 1023 30.21 852 25.16 -1.2 29.8 56 -8.9 16
16:55 1023 30.21 852 25.16 -1.2 29.8 58 -8.5 16.7
17:00 1022 30.18 852 25.16 -1.7 28.9 59 -8.8 16.2
17:05 1022 30.18 852 25.16 -1.8 28.7 55 -9.6 14.7
17:10 1023 30.21 852 25.16 -2 28.4 57 -9.4 15.1
17:15 1023 30.21 852 25.16 -1.9 28.6 57 -9.4 15
17:20 1023 30.21 852 25.16 -1.5 29.3 57 -9 15.8
17:25 1023 30.21 852 25.16 -1.3 29.7 56 -8.8 16.1
17:30 1023 30.21 852 25.16 -1.3 29.7 57 -8.7 16.3
17:35 1023 30.21 852 25.16 -1.4 29.5 56 -9 15.9
17:40 1023 30.21 852 25.16 -1.7 28.9 56 -9.5 15
17:45 1023 30.21 852 25.16 -1.6 29.1 57 -9.2 15.5
17:50 1023 30.21 852 25.16 -2 28.4 58 -9.2 15.4
17:55 1023 30.21 852 25.16 -2.3 27.9 58 -9.6 14.8
18:00 1023 30.21 852 25.16 -2.2 28 58 -9.4 15
18:05 1023 30.21 852 25.16 -2.2 28.1 57 -9.5 14.9
18:10 1023 30.21 852 25.16 -2 28.3 55 -9.9 14.1
18:15 1023 30.21 852 25.16 -1.8 28.7 55 -9.6 14.7
18:20 1023 30.21 852 25.16 -1.6 29.1 52 -10.1 13.8
18:25 1023 30.21 852 25.16 -1.3 29.6 54 -9.4 15
18:30 1023 30.21 852 25.16 -1.2 29.8 49 -10.5 13
18:35 1023 30.21 852 25.16 -1.1 30 52 -9.7 14.6
18:40 1023 30.21 852 25.16 -1.6 29.1 56 -9.2 15.4
18:45 1023 30.21 852 25.16 -1.8 28.7 59 -8.8 16.1
18:50 1023 30.21 852 25.16 -1.8 28.7 59 -8.7 16.3
18:55 1023 30.21 852 25.16 -1.8 28.7 58 -9 15.9
19:00 1023 30.21 852 25.16 -1.8 28.7 58 -9.1 15.6
19:05 1023 30.21 852 25.16 -2.1 28.3 59 -9 15.7
19:10 1023 30.21 852 25.16 -2.2 28 59 -9.2 15.5
19:15 1023 30.21 852 25.16 -2.3 27.8 60 -9.1 15.7
19:20 1023 30.21 852 25.16 -2.4 27.6 61 -9 15.7
19:25 1023 30.21 852 25.16 -2.5 27.5 59 -9.5 14.9
19:30 1023 30.21 852 25.16 -2.5 27.5 60 -9.3 15.2
19:35 1023 30.21 852 25.16 -2.7 27.2 62 -9 15.8
19:40 1023 30.21 852 25.16 -2.6 27.3 57 -9.9 14.1
19:45 1023 30.21 852 25.16 -2.2 28 55 -10.2 13.6
19:50 1023 30.21 852 25.16 -2.5 27.5 60 -9.3 15.2
19:55 1023 30.21 852 25.16 -3.1 26.5 62 -9.4 15.1
20:00 1023 30.21 852 25.16 -3.4 26 59 -10.2 13.7
20:05 1023 30.21 852 25.16 -3.1 26.5 59 -9.9 14.2
20:10 1023 30.21 852 25.16 -2.9 26.7 50 -11.9 10.6
20:15 1023 30.21 852 25.16 -2.9 26.8 54 -10.9 12.5
20:20 1023 30.21 852 25.16 -3.7 25.4 56 -11.2 11.9
20:25 1023 30.21 852 25.16 -3.4 25.8 54 -11.4 11.6
20:30 1023 30.21 852 25.16 -3.2 26.3 50 -12.3 9.9
20:35 1023 30.21 853 25.19 -2.5 27.5 52 -11 12.2
20:40 1023 30.21 853 25.19 -2.9 26.7 54 -11 12.3
20:45 1023 30.21 853 25.19 -3 26.6 53 -11.4 11.5
20:50 1024 30.24 853 25.19 -3.2 26.2 53 -11.5 11.4
20:55 1024 30.24 853 25.19 -3.1 26.3 55 -10.9 12.4
21:00 1024 30.24 853 25.19 -3.2 26.2 55 -11.1 12
21:05 1024 30.24 853 25.19 -3.3 26.1 58 -10.4 13.2
21:10 1024 30.24 853 25.19 -3.5 25.7 59 -10.4 13.3
21:15 1024 30.24 853 25.19 -3.3 26.1 59 -10.3 13.4
21:20 1024 30.24 853 25.19 -3.4 25.8 59 -10.3 13.4
21:25 1024 30.24 853 25.19 -3.2 26.3 59 -10.1 13.8
21:30 1024 30.24 853 25.19 -2.9 26.8 57 -10.2 13.7
21:35 1024 30.24 853 25.19 -2.5 27.6 58 -9.6 14.7
21:40 1024 30.24 853 25.19 -1.9 28.6 50 -10.9 12.3
21:45 1024 30.24 853 25.19 -1 30.1 48 -10.7 12.8
21:50 1024 30.24 853 25.19 -0.9 30.3 47 -10.9 12.3
21:55 1024 30.24 853 25.19 -1 30.2 50 -10.1 13.8
22:00 1024 30.24 854 25.22 -1.4 29.4 54 -9.7 14.6
22:05 1024 30.24 854 25.22 -1.9 28.6 53 -10.2 13.6
22:10 1024 30.24 854 25.22 -1.8 28.8 51 -10.6 13
22:15 1024 30.24 854 25.22 -1.4 29.5 50 -10.6 13
22:20 1024 30.24 854 25.22 -1.5 29.3 51 -10.2 13.6
22:25 1024 30.24 854 25.22 -1.5 29.3 53 -9.9 14.1
22:30 1025 30.27 854 25.22 -1.9 28.6 56 -9.6 14.7
22:35 1025 30.27 854 25.22 -2.5 27.6 58 -9.7 14.6
22:40 1025 30.27 854 25.22 -2.5 27.6 57 -9.8 14.3
22:45 1025 30.27 854 25.22 -2.6 27.4 56 -10.2 13.7
22:50 1025 30.27 854 25.22 -2.5 27.4 55 -10.4 13.3
22:55 1025 30.27 854 25.22 -2.5 27.5 55 -10.3 13.5
23:00 1025 30.27 854 25.22 -2.9 26.8 56 -10.6 13
23:05 1025 30.27 854 25.22 -2.9 26.7 57 -10.3 13.4
23:10 1025 30.27 854 25.22 -3.2 26.2 60 -10 14
23:15 1025 30.27 854 25.22 -3.6 25.6 60 -10.1 13.8
23:20 1025 30.27 854 25.22 -3.2 26.2 59 -10.1 13.8
23:25 1025 30.27 854 25.22 -3 26.5 58 -10.3 13.5
23:30 1025 30.27 854 25.22 -2.9 26.9 57 -10.1 13.8
23:35 1025 30.27 854 25.22 -3.1 26.5 60 -9.7 14.5
23:40 1025 30.27 854 25.22 -2.9 26.8 60 -9.5 14.8
23:45 1025 30.27 854 25.22 -2.9 26.7 62 -9.3 15.2
23:50 1025 30.27 854 25.22 -3.2 26.3 60 -9.8 14.4
23:55 1025 30.27 854 25.22 -3.2 26.2 61 -9.8 14.4
24:00 1025 30.27 855 25.25 -3.1 26.4 60 -9.8 14.4